Time;durP1;ratioP1;P1;durP2;ratioP2;P2;SDS_P1;SDS_P2;PMS_P1;PMS_P2;Temp;Humidity;BMP_temperature;BMP_pressure;BME280_temperature;BME280_humidity;BME280_pressure;Samples;Min_cycle;Max_cycle;Signal;HPM_P1;HPM_P2
2023/05/15 00:02:15;;;;;;;3.97;3.30;;;16.40;99.90;;;;;;10307041;28;20515;-77
2023/05/15 00:07:44;;;;;;;9.75;3.50;;;16.30;99.90;;;;;;10280805;29;20227;-79
2023/05/15 00:13:06;;;;;;;3.70;3.33;;;16.40;99.90;;;;;;10280842;28;20195;-77
2023/05/15 00:18:26;;;;;;;4.07;3.30;;;16.30;99.90;;;;;;10304816;28;20206;-80
2023/05/15 00:23:47;;;;;;;5.40;3.88;;;16.20;1.00;;;;;;10320301;28;20230;-76
2023/05/15 00:29:08;;;;;;;5.63;3.67;;;16.10;1.00;;;;;;10299400;28;20223;-79
2023/05/15 00:34:31;;;;;;;5.47;3.22;;;16.20;1.00;;;;;;10287295;28;20427;-78
2023/05/15 00:39:52;;;;;;;5.32;3.15;;;16.20;1.00;;;;;;10280032;28;20198;-78
2023/05/15 00:45:15;;;;;;;6.97;3.35;;;16.20;99.90;;;;;;10285891;28;20283;-75
2023/05/15 00:50:40;;;;;;;4.80;3.15;;;16.20;99.90;;;;;;10273330;28;20505;-77
2023/05/15 00:56:03;;;;;;;5.22;3.28;;;16.20;99.90;;;;;;10278060;29;20270;-77
2023/05/15 01:01:25;;;;;;;7.00;3.38;;;16.10;99.90;;;;;;10292344;28;20279;-79
2023/05/15 01:06:47;;;;;;;7.97;3.58;;;16.10;99.90;;;;;;10265959;28;20257;-78
2023/05/15 01:12:09;;;;;;;3.08;2.78;;;16.10;99.90;;;;;;10278592;28;20194;-75
2023/05/15 01:17:30;;;;;;;4.00;2.85;;;16.00;99.90;;;;;;10303378;28;20252;-76
2023/05/15 01:23:36;;;;;;;3.58;2.75;;;16.00;99.90;;;;;;10318231;28;20241;-77
2023/05/15 01:29:25;;;;;;;4.32;2.90;;;16.00;99.90;;;;;;10255241;29;20311;-77
2023/05/15 01:35:01;;;;;;;3.72;2.88;;;16.00;99.90;;;;;;10178692;29;20213;-78
2023/05/15 01:40:25;;;;;;;4.53;3.00;;;16.00;99.90;;;;;;10168346;29;20223;-79
2023/05/15 01:45:46;;;;;;;7.20;3.47;;;16.00;99.90;;;;;;10236041;29;20227;-80
2023/05/15 01:51:10;;;;;;;3.28;2.97;;;15.90;99.90;;;;;;10233091;29;20270;-76
2023/05/15 01:56:31;;;;;;;3.85;3.00;;;15.90;99.90;;;;;;10228001;29;20293;-77
2023/05/15 02:01:53;;;;;;;3.30;2.90;;;15.90;99.90;;;;;;10305293;28;20214;-79
2023/05/15 02:07:14;;;;;;;4.30;3.25;;;15.90;99.90;;;;;;10291165;28;20237;-77
2023/05/15 02:12:37;;;;;;;4.25;3.00;;;15.90;99.90;;;;;;10275544;29;20187;-79
2023/05/15 02:17:57;;;;;;;3.30;2.67;;;15.90;99.90;;;;;;10275026;28;20195;-79
2023/05/15 02:23:20;;;;;;;5.65;2.95;;;15.90;99.90;;;;;;10274821;28;20195;-77
2023/05/15 02:28:44;;;;;;;4.13;2.80;;;15.90;99.90;;;;;;10275168;28;20314;-77
2023/05/15 02:34:15;;;;;;;4.10;3.25;;;15.90;99.90;;;;;;10274624;28;20198;-78
2023/05/15 02:39:37;;;;;;;6.93;5.50;;;15.90;99.90;;;;;;10275277;28;20193;-76
2023/05/15 02:45:00;;;;;;;5.65;4.75;;;15.80;99.90;;;;;;10291343;28;20389;-78
2023/05/15 02:50:24;;;;;;;7.28;5.80;;;15.90;99.90;;;;;;10279728;28;20545;-78
2023/05/15 02:55:45;;;;;;;6.63;5.55;;;15.80;99.90;;;;;;10273668;29;20195;-78
2023/05/15 03:01:06;;;;;;;5.85;5.03;;;15.80;99.90;;;;;;10321787;28;20213;-76
2023/05/15 03:06:27;;;;;;;7.95;3.40;;;15.80;99.90;;;;;;10278677;28;20818;-76
2023/05/15 03:11:48;;;;;;;3.42;3.03;;;15.80;99.90;;;;;;10272834;28;20241;-76
2023/05/15 03:17:10;;;;;;;3.72;2.85;;;15.80;99.90;;;;;;10309464;28;20245;-77
2023/05/15 03:22:30;;;;;;;5.53;3.67;;;15.80;99.90;;;;;;10313105;28;20224;-79
2023/05/15 03:27:52;;;;;;;4.65;3.50;;;15.80;99.90;;;;;;10297979;28;20258;-77
2023/05/15 03:33:13;;;;;;;5.45;3.40;;;15.90;99.90;;;;;;10273069;28;20452;-77
2023/05/15 03:38:34;;;;;;;5.63;3.60;;;15.90;99.90;;;;;;10273860;28;20261;-77
2023/05/15 03:43:55;;;;;;;4.03;3.50;;;15.90;99.90;;;;;;10277031;28;20221;-76
2023/05/15 03:49:16;;;;;;;4.05;3.55;;;16.00;99.90;;;;;;10301520;28;20227;-76
2023/05/15 03:54:37;;;;;;;4.47;3.53;;;16.00;99.90;;;;;;10273353;28;20254;-79
2023/05/15 03:59:58;;;;;;;7.60;5.00;;;16.00;99.90;;;;;;10275821;28;20266;-77
2023/05/15 04:05:20;;;;;;;9.15;6.65;;;16.00;99.90;;;;;;10286357;28;20222;-77
2023/05/15 04:10:41;;;;;;;8.82;6.00;;;16.10;99.90;;;;;;10273199;28;20430;-78
2023/05/15 04:16:03;;;;;;;6.45;5.40;;;16.20;99.90;;;;;;10291089;28;20214;-76
2023/05/15 04:21:24;;;;;;;9.20;4.43;;;16.20;99.90;;;;;;10320427;28;20304;-77
2023/05/15 04:26:45;;;;;;;3.67;3.15;;;16.20;99.90;;;;;;10319369;28;20256;-77
2023/05/15 04:32:06;;;;;;;3.60;3.25;;;16.30;99.90;;;;;;10301506;28;20214;-78
2023/05/15 04:37:28;;;;;;;5.18;3.22;;;16.30;99.90;;;;;;10319626;28;20198;-78
2023/05/15 04:42:49;;;;;;;4.20;3.20;;;16.40;99.90;;;;;;10319590;28;20197;-77
2023/05/15 04:48:10;;;;;;;5.68;3.88;;;16.40;99.90;;;;;;10297265;28;20548;-77
2023/05/15 04:53:31;;;;;;;5.93;3.70;;;16.50;99.90;;;;;;10278967;28;20243;-77
2023/05/15 04:58:52;;;;;;;6.55;4.07;;;16.60;99.90;;;;;;10278563;28;20373;-77
2023/05/15 05:04:13;;;;;;;6.18;4.60;;;16.60;99.90;;;;;;10300020;28;20564;-77
2023/05/15 05:09:34;;;;;;;9.95;5.95;;;16.70;99.90;;;;;;10277063;28;20252;-78
2023/05/15 05:14:55;;;;;;;7.65;5.35;;;16.80;99.90;;;;;;10288974;28;20273;-77
2023/05/15 05:20:16;;;;;;;5.57;4.63;;;16.90;99.90;;;;;;10318195;28;20186;-77
2023/05/15 05:25:37;;;;;;;4.32;3.35;;;17.00;99.90;;;;;;10310648;28;20246;-76
2023/05/15 05:30:58;;;;;;;5.22;3.20;;;17.00;99.90;;;;;;10270349;28;20234;-77
2023/05/15 05:36:19;;;;;;;8.35;3.50;;;17.00;99.90;;;;;;10275870;28;20508;-77
2023/05/15 05:41:40;;;;;;;4.13;3.00;;;17.10;99.90;;;;;;10278080;28;20375;-77
2023/05/15 05:47:00;;;;;;;9.80;3.30;;;17.10;99.90;;;;;;10277040;28;20215;-76
2023/05/15 05:52:21;;;;;;;4.03;3.28;;;17.00;99.90;;;;;;10275352;28;20283;-75
2023/05/15 05:57:42;;;;;;;4.65;3.15;;;17.00;99.90;;;;;;10276659;28;20190;-77
2023/05/15 06:03:03;;;;;;;3.60;2.83;;;17.10;99.90;;;;;;10291325;28;20199;-77
2023/05/15 06:08:24;;;;;;;5.32;3.47;;;17.20;99.90;;;;;;10285267;28;20222;-78
2023/05/15 06:13:45;;;;;;;11.18;4.13;;;17.30;99.90;;;;;;10276250;29;20234;-77
2023/05/15 06:19:06;;;;;;;7.35;4.18;;;17.20;99.90;;;;;;10277078;28;20217;-78
2023/05/15 06:24:27;;;;;;;7.60;4.30;;;17.30;99.90;;;;;;10315722;28;20222;-77
2023/05/15 06:29:48;;;;;;;7.45;3.28;;;17.30;99.90;;;;;;10290794;28;20226;-79
2023/05/15 06:35:09;;;;;;;7.03;3.30;;;17.30;99.90;;;;;;10287377;28;20422;-78
2023/05/15 06:40:30;;;;;;;5.35;3.00;;;17.30;99.90;;;;;;10300652;28;20497;-79
2023/05/15 06:45:52;;;;;;;5.82;4.40;;;17.50;99.90;;;;;;10315017;28;20201;-78
2023/05/15 06:51:13;;;;;;;5.57;4.18;;;17.60;99.90;;;;;;10285754;28;20458;-78
2023/05/15 06:56:34;;;;;;;14.27;8.07;;;17.80;99.90;;;;;;10314782;28;20204;-77
2023/05/15 07:01:55;;;;;;;9.00;5.15;;;17.80;99.90;;;;;;10313152;28;20218;-76
2023/05/15 07:07:17;;;;;;;7.65;4.57;;;17.80;99.90;;;;;;10262436;28;20597;-78
2023/05/15 07:12:38;;;;;;;7.60;4.63;;;17.90;99.90;;;;;;10305628;28;20202;-76
2023/05/15 07:17:58;;;;;;;7.15;4.50;;;17.80;99.90;;;;;;10316795;28;20195;-76
2023/05/15 07:23:20;;;;;;;10.13;4.45;;;17.80;99.90;;;;;;10291043;28;20214;-76
2023/05/15 07:28:41;;;;;;;7.07;4.18;;;17.80;99.90;;;;;;10244189;28;20366;-78
2023/05/15 07:34:02;;;;;;;8.85;5.45;;;17.80;99.90;;;;;;10265416;28;20207;-79
2023/05/15 07:39:23;;;;;;;10.35;5.93;;;17.70;99.90;;;;;;10280287;28;20213;-75
2023/05/15 07:44:44;;;;;;;7.03;4.65;;;17.60;99.90;;;;;;10284738;28;20493;-75
2023/05/15 07:50:06;;;;;;;5.80;3.70;;;17.60;99.90;;;;;;10306382;28;20532;-75
2023/05/15 07:55:29;;;;;;;8.93;4.22;;;17.60;99.90;;;;;;10309712;28;20245;-75
2023/05/15 08:00:50;;;;;;;5.35;3.70;;;17.60;99.90;;;;;;10315444;28;20233;-75
2023/05/15 08:06:11;;;;;;;13.35;5.70;;;17.60;99.90;;;;;;10271672;28;20207;-80
2023/05/15 08:11:32;;;;;;;8.45;5.10;;;17.70;99.90;;;;;;10254269;28;20373;-75
2023/05/15 08:16:53;;;;;;;8.02;4.20;;;17.70;99.90;;;;;;10281448;28;20199;-77
2023/05/15 08:22:14;;;;;;;8.38;4.85;;;17.70;99.90;;;;;;10274255;28;20210;-77
2023/05/15 08:27:36;;;;;;;8.20;4.75;;;17.60;99.90;;;;;;10270861;28;20238;-75
2023/05/15 08:32:57;;;;;;;10.00;4.80;;;17.60;99.90;;;;;;10275246;28;20221;-77
2023/05/15 08:38:18;;;;;;;8.00;4.68;;;17.70;99.90;;;;;;10291356;28;20199;-79
2023/05/15 08:43:40;;;;;;;10.73;4.93;;;17.80;99.90;;;;;;10265612;28;21779;-80
2023/05/15 08:49:15;;;;;;;9.70;4.57;;;17.80;99.90;;;;;;10295409;28;20297;-78
2023/05/15 08:54:39;;;;;;;11.38;4.93;;;17.80;99.90;;;;;;10314557;28;20195;-76
2023/05/15 09:00:03;;;;;;;7.45;4.90;;;17.90;99.90;;;;;;10302904;28;20468;-76
2023/05/15 09:05:27;;;;;;;7.88;4.75;;;18.00;99.90;;;;;;10312563;28;20512;-76
2023/05/15 09:10:49;;;;;;;9.35;4.40;;;18.00;99.90;;;;;;10233931;29;20307;-76
2023/05/15 09:16:10;;;;;;;10.93;4.82;;;18.10;99.90;;;;;;10280612;28;20213;-77
2023/05/15 09:21:32;;;;;;;8.35;3.70;;;17.90;99.90;;;;;;10276649;28;20210;-77
2023/05/15 09:27:05;;;;;;;7.32;4.95;;;17.90;99.90;;;;;;10272260;28;20605;-75
2023/05/15 09:32:27;;;;;;;8.70;3.70;;;17.80;99.90;;;;;;10270349;28;20250;-77
2023/05/15 09:37:58;;;;;;;6.68;3.75;;;17.70;99.90;;;;;;10273337;28;20195;-76
2023/05/15 09:43:19;;;;;;;7.45;5.18;;;17.60;99.90;;;;;;10268407;28;20307;-75
2023/05/15 09:48:41;;;;;;;7.13;4.63;;;17.30;1.00;;;;;;10262444;28;20223;-75
2023/05/15 09:54:03;;;;;;;7.15;4.43;;;17.20;1.00;;;;;;10272323;28;20196;-80
2023/05/15 09:59:24;;;;;;;6.38;4.47;;;17.00;1.00;;;;;;10238116;29;20203;-80
2023/05/15 10:04:52;;;;;;;5.57;4.10;;;16.90;1.00;;;;;;10271696;28;20400;-77
2023/05/15 10:10:13;;;;;;;6.15;4.28;;;17.00;1.00;;;;;;10263926;28;20240;-76
2023/05/15 10:15:34;;;;;;;7.07;3.90;;;17.10;1.00;;;;;;10268597;28;20199;-81
2023/05/15 10:20:56;;;;;;;7.28;4.40;;;16.90;1.00;;;;;;10256036;28;20253;-75
2023/05/15 10:26:31;;;;;;;4.93;3.40;;;16.80;99.90;;;;;;10278502;28;20392;-76
2023/05/15 10:31:52;;;;;;;17.70;8.82;;;16.30;1.00;;;;;;10297253;28;20242;-80
2023/05/15 10:37:15;;;;;;;5.57;3.80;;;16.00;99.90;;;;;;10286723;28;20221;-78
2023/05/15 10:42:37;;;;;;;4.95;3.45;;;15.90;1.00;;;;;;10287175;28;20203;-78
2023/05/15 10:47:59;;;;;;;5.05;3.55;;;15.80;1.00;;;;;;10245654;28;20238;-77
2023/05/15 10:53:20;;;;;;;6.13;4.53;;;15.60;1.00;;;;;;10287918;28;20226;-77
2023/05/15 10:58:53;;;;;;;4.88;3.40;;;15.60;99.90;;;;;;10310200;28;20249;-76
2023/05/15 11:04:16;;;;;;;5.28;3.55;;;15.60;99.90;;;;;;10308835;28;20492;-76
2023/05/15 11:09:39;;;;;;;6.30;4.03;;;15.50;99.90;;;;;;10276712;28;20487;-76
2023/05/15 11:14:59;;;;;;;4.35;3.67;;;15.40;99.90;;;;;;10269484;28;20240;-75
2023/05/15 11:20:38;;;;;;;3.58;3.08;;;15.40;99.90;;;;;;10268464;28;20204;-77
2023/05/15 11:26:00;;;;;;;2.90;2.55;;;15.40;99.90;;;;;;10295055;28;20621;-78
2023/05/15 11:31:29;;;;;;;4.10;2.97;;;15.40;99.90;;;;;;10260807;28;20289;-78
2023/05/15 11:36:51;;;;;;;4.47;2.67;;;15.40;99.90;;;;;;10271753;28;20249;-76
2023/05/15 11:42:12;;;;;;;5.55;3.20;;;15.30;99.90;;;;;;10285138;28;20300;-79
2023/05/15 11:47:33;;;;;;;4.78;2.70;;;15.40;99.90;;;;;;10290494;28;20555;-77
2023/05/15 11:52:55;;;;;;;4.90;3.05;;;15.20;99.90;;;;;;10289928;28;20292;-77
2023/05/15 11:58:18;;;;;;;6.57;3.85;;;15.10;99.90;;;;;;10283656;28;20203;-77
2023/05/15 12:03:39;;;;;;;6.50;4.00;;;15.10;99.90;;;;;;10286735;28;20520;-78
2023/05/15 12:09:01;;;;;;;6.88;4.03;;;15.20;99.90;;;;;;10266236;28;20313;-78
2023/05/15 12:14:29;;;;;;;6.35;3.85;;;15.30;99.90;;;;;;10285230;28;20303;-78
2023/05/15 12:19:51;;;;;;;22.00;13.02;;;15.30;99.90;;;;;;10283555;28;20235;-79
2023/05/15 12:25:14;;;;;;;11.20;7.10;;;15.40;99.90;;;;;;10284352;28;20234;-79
2023/05/15 12:30:36;;;;;;;8.85;4.97;;;15.30;99.90;;;;;;10271828;28;20423;-75
2023/05/15 12:35:57;;;;;;;7.55;4.80;;;15.40;99.90;;;;;;10288390;28;20512;-77
2023/05/15 12:41:21;;;;;;;6.65;5.13;;;15.30;99.90;;;;;;10294391;28;20408;-79
2023/05/15 12:46:42;;;;;;;7.57;4.88;;;15.10;99.90;;;;;;10292981;28;20216;-77
2023/05/15 12:52:09;;;;;;;5.07;4.40;;;15.00;99.90;;;;;;10308052;28;20235;-76
2023/05/15 12:57:31;;;;;;;8.18;5.57;;;15.00;99.90;;;;;;10263127;28;20385;-76
2023/05/15 13:02:54;;;;;;;16.85;8.35;;;15.00;99.90;;;;;;10306926;28;20186;-75
2023/05/15 13:08:16;;;;;;;10.77;7.32;;;14.80;99.90;;;;;;10240695;28;20555;-75
2023/05/15 13:13:42;;;;;;;10.15;7.20;;;14.60;99.90;;;;;;10270472;28;20252;-75
2023/05/15 13:19:05;;;;;;;7.57;5.60;;;14.30;99.90;;;;;;10293485;28;20480;-77
2023/05/15 13:24:26;;;;;;;7.68;6.22;;;;;;;;;;10267206;28;20234;-74
2023/05/15 13:29:47;;;;;;;11.55;6.57;;;;;;;;;;10261805;28;20308;-74
2023/05/15 13:35:09;;;;;;;9.80;6.20;;;14.30;99.90;;;;;;10267495;28;20211;-80
2023/05/15 13:40:36;;;;;;;10.02;5.85;;;14.10;99.90;;;;;;10237785;29;20438;-80
2023/05/15 13:45:58;;;;;;;7.68;6.05;;;13.90;99.90;;;;;;10245506;29;20199;-77
2023/05/15 13:51:19;;;;;;;7.70;6.32;;;13.70;99.90;;;;;;10274146;28;20264;-80
2023/05/15 13:56:40;;;;;;;7.88;6.45;;;13.50;99.90;;;;;;10276251;28;20204;-78
2023/05/15 14:02:02;;;;;;;11.50;7.30;;;13.50;99.90;;;;;;10259836;29;20606;-81
2023/05/15 14:07:23;;;;;;;10.68;6.82;;;13.60;99.90;;;;;;10250579;29;20276;-74
2023/05/15 14:12:45;;;;;;;12.93;7.53;;;13.60;99.90;;;;;;10261729;28;20213;-78
2023/05/15 14:18:07;;;;;;;8.07;6.45;;;13.70;99.90;;;;;;10279524;28;20201;-76
2023/05/15 14:23:28;;;;;;;8.18;6.15;;;13.60;99.90;;;;;;10276115;28;20273;-76
2023/05/15 14:28:49;;;;;;;7.90;6.65;;;13.70;99.90;;;;;;10276808;28;20237;-74
2023/05/15 14:34:10;;;;;;;8.45;7.15;;;13.70;99.90;;;;;;10249732;29;20280;-74
2023/05/15 14:39:31;;;;;;;10.85;7.30;;;13.70;99.90;;;;;;10278176;28;20291;-75
2023/05/15 14:44:52;;;;;;;9.55;7.28;;;13.80;99.90;;;;;;10288099;28;20238;-73
2023/05/15 14:50:13;;;;;;;10.13;7.00;;;13.90;99.90;;;;;;10297896;28;20229;-77
2023/05/15 14:55:34;;;;;;;13.55;6.97;;;13.90;99.90;;;;;;10276266;28;20201;-75
2023/05/15 15:00:56;;;;;;;9.43;6.93;;;13.80;99.90;;;;;;10293716;28;20208;-73
2023/05/15 15:06:17;;;;;;;8.75;6.80;;;13.80;99.90;;;;;;10278478;28;20244;-75
2023/05/15 15:11:38;;;;;;;11.10;6.72;;;13.80;99.90;;;;;;10273191;28;20229;-75
2023/05/15 15:16:59;;;;;;;7.22;6.22;;;13.70;99.90;;;;;;10309433;28;20285;-74
2023/05/15 15:22:20;;;;;;;11.73;6.80;;;13.70;99.90;;;;;;10312343;28;20535;-75
2023/05/15 15:27:42;;;;;;;7.85;5.80;;;13.60;99.90;;;;;;10305231;28;20321;-74
2023/05/15 15:33:02;;;;;;;8.65;6.53;;;13.60;99.90;;;;;;10309869;28;20286;-75
2023/05/15 15:38:24;;;;;;;7.18;5.70;;;13.60;99.90;;;;;;10248900;28;20278;-76
2023/05/15 15:43:45;;;;;;;9.57;6.05;;;13.60;99.90;;;;;;10294708;28;20205;-75
2023/05/15 15:49:06;;;;;;;13.77;8.23;;;13.40;99.90;;;;;;10279395;28;20573;-75
2023/05/15 15:54:27;;;;;;;10.80;6.78;;;13.40;99.90;;;;;;10274094;28;20209;-76
2023/05/15 15:59:48;;;;;;;8.05;6.93;;;13.40;99.90;;;;;;10268224;28;20206;-74
2023/05/15 16:05:10;;;;;;;7.22;6.03;;;13.50;99.90;;;;;;10273239;29;20193;-75
2023/05/15 16:10:31;;;;;;;7.72;5.15;;;13.30;99.90;;;;;;10279403;28;20228;-74
2023/05/15 16:15:52;;;;;;;7.10;5.95;;;13.30;99.90;;;;;;10274337;28;20204;-76
2023/05/15 16:21:13;;;;;;;6.95;5.50;;;13.40;99.90;;;;;;10276332;28;20285;-75
2023/05/15 16:26:36;;;;;;;8.40;6.20;;;13.20;99.90;;;;;;10264946;29;20237;-74
2023/05/15 16:31:58;;;;;;;8.98;5.82;;;13.30;99.90;;;;;;10272295;28;20228;-75
2023/05/15 16:37:19;;;;;;;9.05;5.50;;;13.30;99.90;;;;;;10285287;28;20198;-76
2023/05/15 16:42:40;;;;;;;7.93;5.63;;;13.30;99.90;;;;;;10280331;28;20193;-75
2023/05/15 16:48:01;;;;;;;10.13;7.47;;;13.40;99.90;;;;;;10293204;28;20221;-74
2023/05/15 16:53:39;;;;;;;8.95;6.38;;;13.40;99.90;;;;;;10320382;28;20216;-75
2023/05/15 16:59:00;;;;;;;10.63;6.97;;;13.40;99.90;;;;;;10279769;29;20203;-76
2023/05/15 17:04:21;;;;;;;15.57;10.05;;;13.40;99.90;;;;;;10309309;28;20294;-75
2023/05/15 17:09:43;;;;;;;13.23;9.20;;;13.40;99.90;;;;;;10305640;28;20228;-74
2023/05/15 17:15:04;;;;;;;7.30;5.97;;;13.40;99.90;;;;;;10277202;29;20198;-77
2023/05/15 17:26:43;;;;;;;11.35;6.70;;;13.30;99.90;;;;;;10277462;28;20352;-74
2023/05/15 17:32:04;;;;;;;8.40;5.90;;;13.20;99.90;;;;;;10284629;28;20270;-76
2023/05/15 17:37:25;;;;;;;7.10;5.30;;;13.20;99.90;;;;;;10281094;28;20279;-76
2023/05/15 17:42:46;;;;;;;8.20;5.82;;;13.20;99.90;;;;;;10302522;28;20449;-75
2023/05/15 17:48:07;;;;;;;6.53;5.85;;;13.30;99.90;;;;;;10303395;28;20255;-76
2023/05/15 17:53:29;;;;;;;11.05;6.88;;;13.30;99.90;;;;;;10317078;28;20230;-76
2023/05/15 17:58:50;;;;;;;8.45;5.75;;;13.10;99.90;;;;;;10308740;28;20224;-74
2023/05/15 18:04:11;;;;;;;5.35;4.55;;;13.10;99.90;;;;;;10263543;29;20208;-76
2023/05/15 18:09:32;;;;;;;4.93;4.43;;;13.10;99.90;;;;;;10274983;29;20312;-75
2023/05/15 18:14:53;;;;;;;4.88;4.43;;;13.20;99.90;;;;;;10277385;28;20246;-76
2023/05/15 18:20:14;;;;;;;5.40;4.22;;;13.20;99.90;;;;;;10276980;28;20249;-75
2023/05/15 18:25:35;;;;;;;6.40;4.28;;;13.10;99.90;;;;;;10280202;28;20244;-76
2023/05/15 18:30:57;;;;;;;5.75;4.45;;;13.20;99.90;;;;;;10275960;28;20276;-76
2023/05/15 18:36:18;;;;;;;5.43;4.68;;;13.20;99.90;;;;;;10275650;28;20393;-75
2023/05/15 18:41:39;;;;;;;4.30;3.90;;;13.20;99.90;;;;;;10292179;28;20385;-76
2023/05/15 18:47:01;;;;;;;4.22;3.72;;;13.20;99.90;;;;;;10314995;28;20275;-76
2023/05/15 18:52:22;;;;;;;4.82;3.90;;;13.20;99.90;;;;;;10315719;28;20426;-74
2023/05/15 18:57:43;;;;;;;4.63;4.13;;;13.20;99.90;;;;;;10282326;28;20285;-75
2023/05/15 19:03:04;;;;;;;6.10;4.43;;;13.20;99.90;;;;;;10275359;28;20504;-75
2023/05/15 19:08:25;;;;;;;5.53;4.40;;;13.30;99.90;;;;;;10274600;28;20217;-74
2023/05/15 19:13:46;;;;;;;5.38;4.13;;;13.30;99.90;;;;;;10275314;28;20202;-76
2023/05/15 19:19:07;;;;;;;4.65;4.25;;;13.30;99.90;;;;;;10273983;28;20271;-76
2023/05/15 19:24:28;;;;;;;5.72;4.60;;;13.30;99.90;;;;;;10272981;29;20232;-75
2023/05/15 19:29:51;;;;;;;4.35;3.90;;;13.30;99.90;;;;;;10280672;29;20233;-76
2023/05/15 19:35:12;;;;;;;4.40;3.97;;;13.30;99.90;;;;;;10276756;29;20197;-75
2023/05/15 19:40:34;;;;;;;4.45;4.05;;;13.30;99.90;;;;;;10237990;28;20205;-75
2023/05/15 19:45:55;;;;;;;4.13;3.78;;;13.30;99.90;;;;;;10272458;28;20202;-75
2023/05/15 19:51:17;;;;;;;5.13;4.63;;;13.30;99.90;;;;;;10282494;29;20533;-76
2023/05/15 19:56:38;;;;;;;6.47;5.07;;;13.30;99.90;;;;;;10281389;29;20190;-77
2023/05/15 20:02:00;;;;;;;12.20;8.90;;;13.30;99.90;;;;;;10280824;29;20209;-75
2023/05/15 20:07:21;;;;;;;20.80;11.80;;;13.30;99.90;;;;;;10281791;28;20201;-77
2023/05/15 20:12:43;;;;;;;12.15;8.63;;;13.30;99.90;;;;;;10275015;29;20262;-76
2023/05/15 20:18:05;;;;;;;7.32;6.25;;;13.30;99.90;;;;;;10280633;28;20202;-77
2023/05/15 20:23:26;;;;;;;6.20;5.50;;;13.30;99.90;;;;;;10280233;29;20192;-75
2023/05/15 20:28:47;;;;;;;9.25;6.50;;;13.30;99.90;;;;;;10280324;28;20244;-75
2023/05/15 20:34:12;;;;;;;8.18;6.70;;;13.30;99.90;;;;;;10275977;28;20254;-76
2023/05/15 20:39:33;;;;;;;9.23;6.93;;;13.40;99.90;;;;;;10280876;28;20391;-75
2023/05/15 20:44:54;;;;;;;8.55;6.47;;;13.40;99.90;;;;;;10280512;29;20205;-76
2023/05/15 20:50:15;;;;;;;6.15;5.55;;;13.40;99.90;;;;;;10274025;29;20276;-74
2023/05/15 20:55:36;;;;;;;7.55;6.32;;;13.40;99.90;;;;;;10279751;28;20193;-76
2023/05/15 21:00:59;;;;;;;6.18;5.40;;;13.30;99.90;;;;;;10278618;28;20352;-76
2023/05/15 21:06:21;;;;;;;8.50;7.70;;;13.40;99.90;;;;;;10279954;28;20269;-76
2023/05/15 21:11:42;;;;;;;8.32;7.45;;;13.30;99.90;;;;;;10279483;28;20229;-74
2023/05/15 21:17:03;;;;;;;12.52;9.70;;;13.30;99.90;;;;;;10278598;28;20204;-76
2023/05/15 21:22:24;;;;;;;12.80;8.70;;;13.30;99.90;;;;;;10278464;28;20209;-75
2023/05/15 21:27:46;;;;;;;14.88;8.55;;;13.30;99.90;;;;;;10278855;28;20264;-76
2023/05/15 21:33:07;;;;;;;9.32;6.25;;;13.30;99.90;;;;;;10277638;28;20517;-75
2023/05/15 21:38:29;;;;;;;7.72;6.93;;;13.20;99.90;;;;;;10278692;28;20269;-76
2023/05/15 21:43:50;;;;;;;9.85;6.80;;;13.30;99.90;;;;;;10278394;29;20219;-77
2023/05/15 21:49:11;;;;;;;7.75;6.15;;;13.20;99.90;;;;;;10273406;29;20253;-75
2023/05/15 21:54:32;;;;;;;7.28;6.05;;;13.30;99.90;;;;;;10278133;28;20269;-76
2023/05/15 21:59:53;;;;;;;6.15;5.18;;;13.30;99.90;;;;;;10277832;28;20273;-76
2023/05/15 22:05:14;;;;;;;7.22;5.43;;;13.20;99.90;;;;;;10276116;28;20204;-77
2023/05/15 22:10:36;;;;;;;6.53;5.70;;;13.20;99.90;;;;;;10276989;28;20227;-75
2023/05/15 22:15:57;;;;;;;7.63;5.63;;;13.20;99.90;;;;;;10275058;29;20406;-76
2023/05/15 22:21:18;;;;;;;6.65;5.60;;;13.30;99.90;;;;;;10276020;28;20197;-74
2023/05/15 22:26:39;;;;;;;8.38;6.00;;;13.30;99.90;;;;;;10276602;28;20462;-74
2023/05/15 22:32:00;;;;;;;7.80;5.78;;;13.20;99.90;;;;;;10271259;28;20227;-76
2023/05/15 22:37:21;;;;;;;6.57;5.88;;;13.20;99.90;;;;;;10275495;29;20198;-76
2023/05/15 22:42:42;;;;;;;7.18;6.47;;;13.20;99.90;;;;;;10276230;29;20199;-76
2023/05/15 22:48:04;;;;;;;7.13;6.30;;;13.20;99.90;;;;;;10271292;29;20235;-76
2023/05/15 22:53:24;;;;;;;8.95;8.05;;;13.10;99.90;;;;;;10275991;28;20533;-75
2023/05/15 22:58:46;;;;;;;7.95;7.25;;;13.10;99.90;;;;;;10275704;28;20393;-75
2023/05/15 23:04:08;;;;;;;10.00;9.00;;;13.10;99.90;;;;;;10243459;29;20519;-76
2023/05/15 23:09:29;;;;;;;11.85;9.38;;;13.00;99.90;;;;;;10246519;29;20604;-75
2023/05/15 23:14:50;;;;;;;9.93;8.90;;;13.00;99.90;;;;;;10273542;29;20244;-76
2023/05/15 23:20:14;;;;;;;9.80;8.80;;;12.90;99.90;;;;;;10273998;28;20221;-75
2023/05/15 23:25:36;;;;;;;9.80;8.48;;;12.90;99.90;;;;;;10274681;28;20229;-76
2023/05/15 23:30:58;;;;;;;10.65;9.25;;;12.80;99.90;;;;;;10273640;28;20233;-74
2023/05/15 23:36:19;;;;;;;9.20;8.40;;;12.80;99.90;;;;;;10274823;28;20200;-76
2023/05/15 23:41:40;;;;;;;14.35;8.85;;;12.80;99.90;;;;;;10273407;29;20499;-76
2023/05/15 23:47:01;;;;;;;9.68;8.77;;;12.80;99.90;;;;;;10273869;28;20208;-76
2023/05/15 23:52:22;;;;;;;10.05;9.02;;;12.80;99.90;;;;;;10274671;29;20223;-76
2023/05/15 23:57:43;;;;;;;9.45;8.52;;;12.90;99.90;;;;;;10274200;29;20192;-74
